Nagaoka, Japan
Current Conditions -  °F | °C
As of 5:00 PM on Tuesday 27 Jan 2015 (Local Time) from RJSN Reporting Station
Rain Showers Rain Showers  
Wind Chill: 32°   Ceiling: 3000
Heat Index: 41°   Visibility: 4mi
Dew Point: 34°   Wind: 18mph
Humidity: 76%   Direction: 320°NW
Pressure: 29.94"   Gusts: NA
Location:  37.46°N, 138.85°E
Report Text: RJSN 270800Z 32016KT 7000 -SHRA FEW015 SCT020 BKN030 05/01 Q1014
Loading
Personal Weather Stations






























Interactive Weather Map New forecast layout! Learn more

10-Day Weather Forecast

Advertisements
Track Severe Weather on mobile